createdAt,value
2017-06-21T00:00:31.727Z,85.60
2017-06-21T00:02:59.330Z,87.20
2017-06-21T00:05:26.875Z,86.70
2017-06-21T00:07:54.427Z,87.10
2017-06-21T00:10:22.079Z,88.40
2017-06-21T00:12:49.696Z,87.90
2017-06-21T00:15:17.290Z,87.90
2017-06-21T00:17:44.929Z,88.60
2017-06-21T00:20:12.512Z,89.60
2017-06-21T00:22:40.892Z,89.40
2017-06-21T00:25:09.252Z,89.20
2017-06-21T00:28:00.356Z,89.20
2017-06-21T00:30:27.894Z,88.10
2017-06-21T00:32:55.555Z,90.20
2017-06-21T00:35:23.118Z,88.70
2017-06-21T00:37:50.728Z,89.30
2017-06-21T00:40:19.022Z,89.30
2017-06-21T00:42:46.616Z,89.20
2017-06-21T00:45:14.274Z,90.00
2017-06-21T00:47:41.802Z,90.30
2017-06-21T00:50:09.391Z,89.90
2017-06-21T00:52:36.926Z,90.50
2017-06-21T00:55:04.522Z,90.10
2017-06-21T00:57:32.054Z,90.60
2017-06-21T00:59:59.647Z,90.50
2017-06-21T01:02:27.203Z,90.70
2017-06-21T01:04:54.755Z,90.00
2017-06-21T01:07:22.834Z,91.20
2017-06-21T01:09:50.432Z,91.00
2017-06-21T01:12:18.022Z,91.00
2017-06-21T01:14:45.581Z,90.60
2017-06-21T01:17:13.180Z,90.60
2017-06-21T01:19:40.833Z,90.80
2017-06-21T01:22:08.489Z,90.80
2017-06-21T01:24:36.125Z,91.60
2017-06-21T01:27:04.507Z,91.60
2017-06-21T01:29:32.872Z,91.40
2017-06-21T01:32:01.296Z,91.30
2017-06-21T01:34:28.899Z,91.30
2017-06-21T01:36:56.564Z,91.40
2017-06-21T01:39:24.471Z,92.00
2017-06-21T01:41:52.116Z,91.60
2017-06-21T01:44:24.514Z,92.20
2017-06-21T01:46:52.148Z,92.20
2017-06-21T01:49:20.550Z,91.40
2017-06-21T01:51:48.179Z,91.40
2017-06-21T01:54:15.834Z,92.10
2017-06-21T01:56:43.405Z,92.30
2017-06-21T01:59:11.102Z,92.00
2017-06-21T02:01:38.672Z,92.00
2017-06-21T02:04:06.342Z,92.60
2017-06-21T02:06:33.958Z,91.80
2017-06-21T02:09:01.566Z,92.30
2017-06-21T02:11:29.147Z,92.40
2017-06-21T02:13:56.795Z,92.70
2017-06-21T02:16:24.341Z,92.90
2017-06-21T02:18:51.932Z,93.00
2017-06-21T02:21:19.544Z,92.50
2017-06-21T02:23:47.924Z,93.10
2017-06-21T02:26:16.350Z,93.00
2017-06-21T02:28:43.969Z,93.00
2017-06-21T02:31:12.342Z,92.90
2017-06-21T02:33:40.727Z,93.30
2017-06-21T02:36:09.157Z,93.30
2017-06-21T02:38:36.747Z,93.30
2017-06-21T02:41:04.351Z,93.30
2017-06-21T02:43:31.954Z,92.90
2017-06-21T02:45:59.623Z,93.00
2017-06-21T02:48:27.249Z,93.10
2017-06-21T02:50:54.846Z,93.50
2017-06-21T02:53:22.421Z,93.00
2017-06-21T02:55:49.998Z,93.10
2017-06-21T02:58:18.497Z,93.70
2017-06-21T03:00:46.063Z,93.70
2017-06-21T03:03:13.750Z,93.50
2017-06-21T03:05:41.373Z,93.20
2017-06-21T03:08:09.704Z,93.50
2017-06-21T03:10:37.259Z,93.50
2017-06-21T03:13:04.848Z,93.50
2017-06-21T03:15:32.419Z,93.60
2017-06-21T03:18:00.032Z,93.80
2017-06-21T03:20:27.664Z,93.40
2017-06-21T03:22:56.132Z,93.80
2017-06-21T03:25:24.524Z,93.80
2017-06-21T03:27:52.900Z,93.80
2017-06-21T03:30:21.256Z,93.70
2017-06-21T03:32:48.827Z,93.70
2017-06-21T03:35:16.394Z,93.60
2017-06-21T03:37:44.773Z,94.40
2017-06-21T03:40:13.148Z,93.60
2017-06-21T03:42:40.842Z,93.60
2017-06-21T03:45:08.579Z,93.90
2017-06-21T03:47:36.937Z,94.40
2017-06-21T03:50:04.516Z,94.10
2017-06-21T03:52:32.074Z,93.60
2017-06-21T03:54:59.758Z,93.90
2017-06-21T03:57:28.190Z,94.10
2017-06-21T03:59:55.809Z,94.10
2017-06-21T04:02:23.415Z,93.90
2017-06-21T04:04:51.042Z,94.00
2017-06-21T04:07:18.606Z,94.10
2017-06-21T04:09:46.232Z,94.20
2017-06-21T04:12:14.882Z,93.90
2017-06-21T04:14:42.468Z,93.50
2017-06-21T04:17:10.075Z,93.90
2017-06-21T04:19:37.659Z,94.20
2017-06-21T04:22:05.242Z,93.20
2017-06-21T04:24:32.872Z,93.60
2017-06-21T04:27:00.462Z,93.70
2017-06-21T04:29:28.102Z,93.90
2017-06-21T04:31:55.667Z,93.80
2017-06-21T04:34:23.269Z,93.80
2017-06-21T04:36:50.899Z,93.10
2017-06-21T04:39:18.448Z,94.30
2017-06-21T04:41:46.023Z,93.50
2017-06-21T04:44:13.628Z,93.20
2017-06-21T04:46:42.012Z,93.00
2017-06-21T04:49:10.323Z,94.20
2017-06-21T04:51:37.873Z,94.20
2017-06-21T04:54:05.481Z,93.80
2017-06-21T04:56:33.052Z,93.60
2017-06-21T04:59:00.623Z,92.70
2017-06-21T05:01:28.248Z,93.40
2017-06-21T05:03:55.779Z,93.20
2017-06-21T05:06:23.372Z,93.10
2017-06-21T05:08:50.946Z,92.30
2017-06-21T05:11:18.506Z,92.50
2017-06-21T05:13:46.196Z,92.20
2017-06-21T05:16:14.523Z,91.70
2017-06-21T05:18:42.101Z,91.50
2017-06-21T05:21:09.650Z,87.10
2017-06-21T05:23:37.183Z,80.70
2017-06-21T05:26:04.778Z,74.70
2017-06-21T05:28:32.334Z,73.10
2017-06-21T05:30:59.999Z,70.20
2017-06-21T05:33:27.652Z,68.10
2017-06-21T05:35:55.227Z,63.80
2017-06-21T05:38:22.771Z,65.20
2017-06-21T05:40:50.351Z,63.40
2017-06-21T05:43:17.883Z,64.40
2017-06-21T05:45:45.470Z,66.00
2017-06-21T05:48:12.999Z,63.30
2017-06-21T05:50:40.566Z,61.70
2017-06-21T05:53:08.123Z,61.00
2017-06-21T05:55:35.710Z,59.40
2017-06-21T05:58:03.370Z,57.60
2017-06-21T06:00:30.931Z,61.40
2017-06-21T06:02:58.491Z,57.60
2017-06-21T06:05:26.063Z,57.30
2017-06-21T06:07:53.707Z,58.50
2017-06-21T06:10:21.276Z,58.40
2017-06-21T06:12:48.844Z,55.30
2017-06-21T06:15:16.371Z,56.10
2017-06-21T06:17:43.983Z,54.00
2017-06-21T06:20:11.627Z,57.90
2017-06-21T06:22:39.158Z,54.40
2017-06-21T06:25:06.742Z,54.30
2017-06-21T06:27:34.311Z,51.90
2017-06-21T06:30:02.794Z,55.50
2017-06-21T06:32:30.346Z,56.20
2017-06-21T06:34:58.011Z,51.20
2017-06-21T06:37:25.540Z,52.10
2017-06-21T06:39:53.102Z,49.80
2017-06-21T06:42:20.704Z,51.50
2017-06-21T06:44:48.261Z,54.20
2017-06-21T06:47:15.816Z,53.20
2017-06-21T06:49:43.378Z,54.70
2017-06-21T06:52:10.943Z,51.80
2017-06-21T06:54:38.507Z,56.90
2017-06-21T06:57:12.659Z,54.60
2017-06-21T06:59:40.971Z,56.00
2017-06-21T07:02:08.562Z,56.00
2017-06-21T07:04:36.119Z,55.40
2017-06-21T07:07:03.764Z,57.80
2017-06-21T07:09:31.346Z,58.40
2017-06-21T07:11:59.006Z,58.60
2017-06-21T07:14:26.568Z,61.80
2017-06-21T07:16:54.114Z,60.00
2017-06-21T07:19:21.646Z,61.30
2017-06-21T07:21:49.242Z,57.10
2017-06-21T07:24:16.803Z,57.30
2017-06-21T07:26:44.331Z,59.00
2017-06-21T07:29:11.898Z,56.30
2017-06-21T07:31:39.431Z,54.40
2017-06-21T07:34:07.774Z,54.60
2017-06-21T07:36:35.329Z,54.50
2017-06-21T07:39:02.882Z,54.40
2017-06-21T07:41:30.414Z,59.40
2017-06-21T07:43:58.006Z,54.50
2017-06-21T07:46:25.567Z,56.70
2017-06-21T07:48:53.135Z,56.00
2017-06-21T07:51:20.690Z,54.90
2017-06-21T07:53:48.251Z,57.80
2017-06-21T07:56:15.783Z,56.30
2017-06-21T07:58:43.326Z,58.70
2017-06-21T08:01:11.622Z,57.10
2017-06-21T08:03:39.215Z,57.00
2017-06-21T08:06:06.771Z,58.50
2017-06-21T08:08:34.338Z,57.50
2017-06-21T08:11:02.002Z,57.20
2017-06-21T08:13:29.563Z,56.80
2017-06-21T08:15:57.219Z,55.90
2017-06-21T08:18:24.779Z,58.20
2017-06-21T08:20:52.338Z,56.00
2017-06-21T08:23:19.876Z,55.20
2017-06-21T08:25:47.468Z,57.30
2017-06-21T08:28:15.022Z,58.60
2017-06-21T08:30:42.585Z,59.40
2017-06-21T08:33:10.145Z,54.30
2017-06-21T08:35:37.682Z,54.70
2017-06-21T08:38:05.253Z,61.20
2017-06-21T08:40:32.787Z,55.30
2017-06-21T08:43:01.110Z,55.10
2017-06-21T08:45:28.675Z,55.10
2017-06-21T08:47:56.336Z,54.20
2017-06-21T08:50:23.868Z,55.70
2017-06-21T08:52:51.441Z,53.80
2017-06-21T08:55:18.970Z,55.80
2017-06-21T08:57:46.571Z,51.00
2017-06-21T09:00:14.138Z,56.50
2017-06-21T09:02:41.695Z,56.30
2017-06-21T09:05:09.259Z,59.80
2017-06-21T09:07:36.801Z,56.20
2017-06-21T09:10:04.383Z,57.10
2017-06-21T09:12:35.064Z,54.40
2017-06-21T09:15:03.487Z,59.10
2017-06-21T09:17:31.050Z,58.80
2017-06-21T09:19:58.715Z,57.50
2017-06-21T09:22:26.274Z,54.90
2017-06-21T09:24:53.938Z,55.60
2017-06-21T09:27:21.474Z,55.50
2017-06-21T09:29:49.031Z,49.30
2017-06-21T09:32:16.635Z,55.50
2017-06-21T09:34:44.284Z,50.70
2017-06-21T09:37:35.315Z,57.10
2017-06-21T09:40:02.863Z,55.70
2017-06-21T09:42:30.446Z,55.40
2017-06-21T09:44:58.086Z,48.20
2017-06-21T09:47:25.615Z,48.10
2017-06-21T09:49:53.210Z,52.40
2017-06-21T09:52:20.760Z,56.00
2017-06-21T09:54:48.422Z,59.80
2017-06-21T09:57:15.994Z,54.50
2017-06-21T09:59:43.532Z,54.70
2017-06-21T10:02:11.114Z,54.30
2017-06-21T10:04:38.670Z,48.50
2017-06-21T10:07:06.214Z,50.00
2017-06-21T10:09:33.786Z,48.50
2017-06-21T10:12:01.350Z,55.80
2017-06-21T10:14:28.878Z,52.80
2017-06-21T10:16:56.467Z,46.60
2017-06-21T10:19:24.003Z,50.90
2017-06-21T10:21:51.600Z,57.70
2017-06-21T10:24:19.134Z,51.20
2017-06-21T10:26:46.716Z,52.50
2017-06-21T10:29:14.291Z,57.70
2017-06-21T10:31:41.843Z,46.50
2017-06-21T10:34:09.412Z,52.10
2017-06-21T10:36:37.174Z,53.80
2017-06-21T10:39:05.039Z,52.30
2017-06-21T10:41:32.591Z,48.00
2017-06-21T10:44:00.155Z,52.10
2017-06-21T10:46:27.719Z,50.90
2017-06-21T10:48:55.375Z,52.50
2017-06-21T10:51:22.935Z,56.10
2017-06-21T10:53:50.494Z,54.00
2017-06-21T10:56:18.049Z,50.20
2017-06-21T10:58:45.618Z,50.60
2017-06-21T11:01:14.289Z,48.50
2017-06-21T11:03:42.704Z,50.80
2017-06-21T11:06:10.254Z,51.00
2017-06-21T11:08:37.806Z,47.30
2017-06-21T11:11:05.374Z,53.30
2017-06-21T11:13:32.932Z,49.30
2017-06-21T11:16:00.590Z,50.10
2017-06-21T11:18:28.158Z,50.50
2017-06-21T11:20:55.718Z,50.30
2017-06-21T11:23:23.279Z,53.60
2017-06-21T11:25:50.842Z,46.60
2017-06-21T11:28:18.402Z,53.10
2017-06-21T11:30:45.934Z,49.60
2017-06-21T11:33:13.523Z,46.80
2017-06-21T11:35:41.084Z,50.20
2017-06-21T11:38:08.646Z,53.40
2017-06-21T11:40:36.194Z,53.70
2017-06-21T11:43:03.858Z,45.30
2017-06-21T11:45:31.413Z,44.30
2017-06-21T11:47:58.980Z,45.20
2017-06-21T11:50:26.547Z,47.30
2017-06-21T11:52:54.102Z,50.20
2017-06-21T11:55:21.672Z,45.30
2017-06-21T11:57:49.219Z,49.70
2017-06-21T12:00:16.790Z,50.00
2017-06-21T12:02:44.348Z,51.50
2017-06-21T12:05:11.910Z,51.50
2017-06-21T12:07:39.473Z,49.30
2017-06-21T12:10:07.031Z,43.80
2017-06-21T12:12:34.592Z,44.10
2017-06-21T12:15:02.160Z,47.90
2017-06-21T12:17:29.716Z,48.50
2017-06-21T12:19:57.379Z,53.30
2017-06-21T12:22:24.911Z,46.50
2017-06-21T12:24:52.503Z,46.90
2017-06-21T12:27:20.063Z,48.30
2017-06-21T12:29:47.623Z,51.20
2017-06-21T12:32:15.190Z,49.80
2017-06-21T12:34:42.721Z,49.70
2017-06-21T12:37:10.305Z,49.10
2017-06-21T12:39:37.859Z,45.40
2017-06-21T12:42:05.420Z,48.20
2017-06-21T12:44:32.979Z,48.40
2017-06-21T12:47:00.547Z,44.70
2017-06-21T12:49:28.098Z,44.70
2017-06-21T12:51:55.762Z,46.90
2017-06-21T12:54:23.334Z,48.80
2017-06-21T12:56:50.872Z,47.70
2017-06-21T12:59:18.450Z,48.70
2017-06-21T13:01:46.015Z,46.90
2017-06-21T13:04:13.546Z,45.70
2017-06-21T13:06:41.126Z,42.60
2017-06-21T13:09:08.795Z,43.90
2017-06-21T13:14:29.207Z,44.90
2017-06-21T13:16:56.767Z,42.20
2017-06-21T13:19:24.331Z,45.30
2017-06-21T13:21:51.891Z,44.90
2017-06-21T13:24:19.454Z,47.70
2017-06-21T13:26:47.022Z,44.70
2017-06-21T13:29:14.578Z,45.80
2017-06-21T13:31:42.239Z,45.00
2017-06-21T13:34:09.774Z,43.80
2017-06-21T13:36:37.367Z,41.90
2017-06-21T13:39:04.987Z,45.30
2017-06-21T13:41:32.552Z,45.90
2017-06-21T13:44:00.142Z,43.90
2017-06-21T13:46:27.698Z,42.40
2017-06-21T13:48:55.264Z,41.90
2017-06-21T13:51:22.826Z,41.50
2017-06-21T13:53:50.388Z,39.70
2017-06-21T13:56:17.947Z,43.50
2017-06-21T13:58:45.674Z,44.70
2017-06-21T14:01:13.267Z,44.30
2017-06-21T14:03:40.934Z,42.90
2017-06-21T14:06:08.491Z,42.20
2017-06-21T14:08:36.042Z,43.20
2017-06-21T14:11:03.619Z,44.50
2017-06-21T14:13:31.371Z,43.60
2017-06-21T14:15:58.943Z,41.90
2017-06-21T14:18:26.503Z,38.80
2017-06-21T14:20:54.062Z,42.30
2017-06-21T14:23:21.619Z,40.50
2017-06-21T14:25:49.376Z,42.90
2017-06-21T14:28:16.963Z,41.60
2017-06-21T14:30:44.514Z,42.90
2017-06-21T14:33:12.070Z,42.80
2017-06-21T14:35:39.726Z,41.10
2017-06-21T14:38:07.290Z,41.20
2017-06-21T14:40:34.852Z,42.50
2017-06-21T14:43:02.441Z,44.40
2017-06-21T14:45:29.978Z,43.40
2017-06-21T14:47:57.634Z,45.20
2017-06-21T14:50:25.198Z,43.50
2017-06-21T14:52:52.862Z,40.40
2017-06-21T14:55:20.426Z,42.20
2017-06-21T14:57:47.987Z,42.30
2017-06-21T15:00:15.539Z,42.60
2017-06-21T15:02:43.203Z,41.90
2017-06-21T15:05:10.771Z,42.10
2017-06-21T15:07:38.298Z,44.50
2017-06-21T15:10:05.830Z,41.40
2017-06-21T15:12:41.333Z,44.20
2017-06-21T15:15:08.986Z,43.50
2017-06-21T15:17:36.554Z,42.20
2017-06-21T15:20:04.114Z,40.20
2017-06-21T15:22:31.674Z,41.90
2017-06-21T15:24:59.245Z,44.30
2017-06-21T15:27:26.784Z,43.40
2017-06-21T15:29:54.375Z,42.70
2017-06-21T15:32:21.922Z,43.10
2017-06-21T15:34:50.298Z,41.70
2017-06-21T15:37:17.881Z,41.90
2017-06-21T15:39:45.435Z,43.00
2017-06-21T15:42:12.990Z,41.80
2017-06-21T15:44:40.529Z,39.50
2017-06-21T15:47:08.059Z,41.70
2017-06-21T15:49:36.381Z,44.90
2017-06-21T15:52:03.942Z,44.70
2017-06-21T15:54:31.474Z,42.30
2017-06-21T15:56:59.058Z,43.50
2017-06-21T15:59:26.595Z,42.60
2017-06-21T16:01:54.197Z,41.40
2017-06-21T16:04:21.738Z,41.20
2017-06-21T16:06:49.319Z,40.80
2017-06-21T16:09:16.863Z,42.50
2017-06-21T16:11:44.391Z,43.10
2017-06-21T16:14:11.990Z,42.90
2017-06-21T16:16:39.537Z,42.20
2017-06-21T16:19:07.107Z,42.10
2017-06-21T16:21:34.642Z,43.90
2017-06-21T16:24:02.234Z,43.40
2017-06-21T16:26:29.795Z,42.80
2017-06-21T16:28:57.355Z,44.50
2017-06-21T16:31:24.920Z,46.20
2017-06-21T16:33:52.470Z,44.70
2017-06-21T16:36:20.007Z,45.00
2017-06-21T16:38:47.587Z,47.20
2017-06-21T16:41:15.151Z,48.20
2017-06-21T16:43:42.682Z,46.00
2017-06-21T16:46:10.280Z,47.70
2017-06-21T16:48:37.935Z,46.60
2017-06-21T16:51:05.504Z,44.00
2017-06-21T16:53:33.035Z,46.50
2017-06-21T16:56:00.714Z,48.00
2017-06-21T16:58:28.284Z,49.70
2017-06-21T17:00:55.810Z,47.40
2017-06-21T17:03:23.411Z,48.50
2017-06-21T17:05:50.967Z,50.70
2017-06-21T17:08:18.513Z,52.00
2017-06-21T17:10:46.043Z,50.40
2017-06-21T17:13:14.776Z,50.10
2017-06-21T17:15:42.347Z,50.00
2017-06-21T17:18:09.894Z,50.60
2017-06-21T17:20:37.458Z,50.90
2017-06-21T17:23:05.014Z,51.50
2017-06-21T17:25:32.589Z,51.00
2017-06-21T17:28:00.143Z,53.20
2017-06-21T17:30:27.702Z,52.10
2017-06-21T17:32:55.234Z,52.80
2017-06-21T17:35:22.828Z,53.00
2017-06-21T17:37:50.382Z,52.60
2017-06-21T17:40:17.932Z,51.70
2017-06-21T17:42:45.610Z,51.50
2017-06-21T17:45:13.145Z,53.30
2017-06-21T17:47:40.734Z,53.10
2017-06-21T17:50:08.263Z,53.40
2017-06-21T17:52:35.846Z,54.20
2017-06-21T17:55:03.412Z,53.70
2017-06-21T17:57:30.966Z,56.00
2017-06-21T17:59:58.499Z,52.20
2017-06-21T18:02:26.097Z,53.70
2017-06-21T18:04:53.751Z,55.30
2017-06-21T18:07:21.284Z,55.80
2017-06-21T18:09:48.842Z,55.10
2017-06-21T18:12:16.376Z,55.40
2017-06-21T18:14:43.994Z,56.80
2017-06-21T18:17:11.565Z,55.60
2017-06-21T18:19:39.099Z,55.00
2017-06-21T18:22:06.635Z,54.00
2017-06-21T18:24:34.948Z,57.70
2017-06-21T18:27:02.528Z,57.70
2017-06-21T18:29:30.082Z,58.80
2017-06-21T18:31:57.639Z,59.00
2017-06-21T18:34:25.204Z,58.80
2017-06-21T18:36:52.864Z,57.70
2017-06-21T18:39:20.437Z,57.60
2017-06-21T18:41:47.994Z,57.30
2017-06-21T18:44:15.638Z,52.00
2017-06-21T18:46:43.207Z,56.90
2017-06-21T18:49:10.777Z,58.10
2017-06-21T18:51:38.524Z,59.30
2017-06-21T18:54:06.054Z,56.50
2017-06-21T18:56:34.382Z,58.50
2017-06-21T18:59:01.943Z,58.40
2017-06-21T19:01:29.592Z,60.30
2017-06-21T19:03:57.126Z,60.40
2017-06-21T19:06:24.730Z,60.60
2017-06-21T19:08:52.283Z,60.80
2017-06-21T19:11:19.843Z,61.80
2017-06-21T19:13:47.402Z,62.00
2017-06-21T19:16:14.963Z,62.40
2017-06-21T19:18:42.518Z,60.10
2017-06-21T19:21:10.087Z,62.30
2017-06-21T19:23:37.769Z,63.20
2017-06-21T19:26:05.409Z,64.00
2017-06-21T19:28:32.975Z,63.90
2017-06-21T19:31:00.506Z,62.30
2017-06-21T19:33:28.095Z,63.20
2017-06-21T19:35:55.628Z,62.30
2017-06-21T19:38:23.219Z,63.00
2017-06-21T19:40:50.781Z,63.30
2017-06-21T19:43:18.330Z,62.80
2017-06-21T19:45:45.895Z,64.40
2017-06-21T19:48:27.182Z,64.30
2017-06-21T19:50:54.742Z,63.90
2017-06-21T19:53:22.300Z,62.20
2017-06-21T19:55:49.961Z,63.00
2017-06-21T19:58:17.532Z,65.20
2017-06-21T20:00:45.200Z,63.30
2017-06-21T20:03:12.754Z,64.60
2017-06-21T20:05:40.408Z,65.60
2017-06-21T20:08:07.940Z,65.10
2017-06-21T20:10:35.498Z,67.60
2017-06-21T20:13:03.091Z,68.50
2017-06-21T20:15:30.762Z,68.30
2017-06-21T20:17:58.335Z,67.30
2017-06-21T20:20:25.879Z,69.10
2017-06-21T20:22:53.443Z,70.40
2017-06-21T20:28:15.087Z,72.30
2017-06-21T20:30:42.744Z,72.20
2017-06-21T20:33:10.311Z,71.00
2017-06-21T20:35:37.859Z,72.10
2017-06-21T20:38:05.427Z,68.10
2017-06-21T20:40:33.040Z,68.50
2017-06-21T20:45:54.139Z,70.50
2017-06-21T20:48:21.670Z,72.40
2017-06-21T20:51:01.714Z,71.30
2017-06-21T20:53:29.299Z,71.70
2017-06-21T20:55:56.830Z,72.60
2017-06-21T20:58:24.359Z,71.40
2017-06-21T21:00:52.700Z,73.40
2017-06-21T21:03:20.258Z,72.70
2017-06-21T21:05:51.567Z,73.60
2017-06-21T21:08:19.130Z,72.30
2017-06-21T21:10:46.727Z,73.70
2017-06-21T21:13:14.396Z,73.20
2017-06-21T21:15:41.946Z,75.00
2017-06-21T21:18:09.610Z,74.10
2017-06-21T21:20:37.170Z,72.80
2017-06-21T21:23:04.741Z,74.90
2017-06-21T21:25:32.280Z,76.30
2017-06-21T21:27:59.814Z,75.10
2017-06-21T21:30:28.145Z,74.90
2017-06-21T21:32:55.679Z,74.70
2017-06-21T21:35:23.235Z,73.60
2017-06-21T21:37:50.771Z,75.30
2017-06-21T21:40:19.099Z,76.80
2017-06-21T21:42:46.656Z,76.80
2017-06-21T21:45:14.322Z,76.70
2017-06-21T21:47:41.874Z,76.20
2017-06-21T21:50:09.538Z,76.10
2017-06-21T21:52:37.107Z,76.00
2017-06-21T21:55:04.666Z,76.20
2017-06-21T21:57:32.226Z,77.20
2017-06-21T21:59:59.788Z,77.40
2017-06-21T22:02:27.319Z,77.70
2017-06-21T22:04:54.904Z,78.00
2017-06-21T22:07:22.470Z,78.60
2017-06-21T22:09:50.002Z,78.20
2017-06-21T22:12:17.588Z,77.80
2017-06-21T22:14:45.920Z,78.30
2017-06-21T22:17:14.347Z,79.30
2017-06-21T22:19:41.914Z,79.30
2017-06-21T22:22:09.570Z,79.80
2017-06-21T22:24:37.098Z,79.60
2017-06-21T22:27:04.707Z,80.20
2017-06-21T22:29:32.254Z,80.60
2017-06-21T22:31:59.898Z,80.90
2017-06-21T22:34:27.430Z,81.20
2017-06-21T22:36:55.754Z,81.80
2017-06-21T22:39:23.319Z,81.80
2017-06-21T22:41:50.886Z,82.10
2017-06-21T22:44:18.439Z,81.80
2017-06-21T22:46:46.010Z,81.90
2017-06-21T22:49:13.566Z,82.10
2017-06-21T22:51:41.119Z,81.50
2017-06-21T22:54:08.798Z,82.30
2017-06-21T22:56:36.346Z,82.40
2017-06-21T22:59:04.006Z,83.20
2017-06-21T23:01:31.543Z,83.30
2017-06-21T23:03:59.099Z,83.30
2017-06-21T23:06:26.695Z,83.80
2017-06-21T23:08:54.367Z,83.50
2017-06-21T23:11:21.915Z,83.40
2017-06-21T23:13:49.478Z,83.90
2017-06-21T23:16:17.007Z,83.60
2017-06-21T23:18:44.564Z,84.40
2017-06-21T23:21:12.095Z,84.50
2017-06-21T23:23:39.730Z,84.90
2017-06-21T23:26:07.291Z,85.20
2017-06-21T23:28:34.844Z,85.30
2017-06-21T23:31:02.399Z,85.40
2017-06-21T23:33:29.954Z,85.60
2017-06-21T23:35:57.526Z,85.80
2017-06-21T23:38:25.054Z,85.40
2017-06-21T23:40:52.611Z,86.60
2017-06-21T23:43:20.148Z,86.50
2017-06-21T23:45:48.495Z,86.70
2017-06-21T23:48:16.055Z,86.70
2017-06-21T23:50:43.611Z,86.80
2017-06-21T23:53:11.171Z,85.70
2017-06-21T23:55:38.704Z,86.70
2017-06-21T23:58:06.304Z,87.20
